createdAt,value
2018-09-17T00:00:14.574Z,101748.00
2018-09-17T00:02:17.726Z,101748.00
2018-09-17T00:04:20.805Z,101747.00
2018-09-17T00:06:23.859Z,101751.00
2018-09-17T00:08:26.874Z,101750.00
2018-09-17T00:10:30.039Z,101752.00
2018-09-17T00:12:33.087Z,101745.00
2018-09-17T00:14:36.134Z,101747.00
2018-09-17T00:16:41.274Z,101748.00
2018-09-17T00:18:44.391Z,101753.00
2018-09-17T00:20:47.423Z,101751.00
2018-09-17T00:22:50.514Z,101752.00
2018-09-17T00:24:53.778Z,101745.00
2018-09-17T00:26:56.843Z,101742.00
2018-09-17T00:29:00.039Z,101744.00
2018-09-17T00:31:03.252Z,101747.00
2018-09-17T00:33:06.399Z,101736.00
2018-09-17T00:35:09.463Z,101741.00
2018-09-17T00:37:12.459Z,101740.00
2018-09-17T00:39:15.496Z,101738.00
2018-09-17T00:41:18.602Z,101739.00
2018-09-17T00:43:21.807Z,101738.00
2018-09-17T00:45:24.914Z,101739.00
2018-09-17T00:47:27.964Z,101741.00
2018-09-17T00:49:30.993Z,101743.00
2018-09-17T00:51:34.097Z,101743.00
2018-09-17T00:53:38.683Z,101740.00
2018-09-17T00:55:41.720Z,101736.00
2018-09-17T00:57:44.750Z,101736.00
2018-09-17T00:59:47.758Z,101733.00
2018-09-17T01:01:50.757Z,101736.00
2018-09-17T01:03:53.719Z,101737.00
2018-09-17T01:05:56.742Z,101736.00
2018-09-17T01:08:00.040Z,101737.00
2018-09-17T01:10:03.183Z,101738.00
2018-09-17T01:12:06.146Z,101737.00
2018-09-17T01:14:10.387Z,101740.00
2018-09-17T01:16:13.445Z,101737.00
2018-09-17T01:18:16.367Z,101744.00
2018-09-17T01:20:19.326Z,101747.00
2018-09-17T01:22:22.325Z,101735.00
2018-09-17T01:24:25.326Z,101740.00
2018-09-17T01:26:28.279Z,101740.00
2018-09-17T01:28:31.260Z,101737.00
2018-09-17T01:30:34.208Z,101732.00
2018-09-17T01:32:38.594Z,101729.00
2018-09-17T01:34:41.535Z,101731.00
2018-09-17T01:36:44.490Z,101728.00
2018-09-17T01:38:47.480Z,101727.00
2018-09-17T01:40:50.667Z,101731.00
2018-09-17T01:42:53.702Z,101735.00
2018-09-17T01:44:56.828Z,101734.00
2018-09-17T01:46:59.870Z,101730.00
2018-09-17T01:49:02.952Z,101734.00
2018-09-17T01:51:06.083Z,101733.00
2018-09-17T01:53:10.417Z,101729.00
2018-09-17T01:55:13.543Z,101726.00
2018-09-17T01:57:16.556Z,101731.00
2018-09-17T01:59:19.624Z,101730.00
2018-09-17T02:01:22.636Z,101726.00
2018-09-17T02:03:25.734Z,101725.00
2018-09-17T02:05:28.882Z,101729.00
2018-09-17T02:07:31.941Z,101725.00
2018-09-17T02:09:38.675Z,101735.00
2018-09-17T02:11:41.754Z,101745.00
2018-09-17T02:13:44.939Z,101748.00
2018-09-17T02:15:48.338Z,101750.00
2018-09-17T02:17:51.382Z,101751.00
2018-09-17T02:19:54.474Z,101750.00
2018-09-17T02:21:57.538Z,101750.00
2018-09-17T02:24:00.547Z,101744.00
2018-09-17T02:26:03.655Z,101743.00
2018-09-17T02:28:08.399Z,101747.00
2018-09-17T02:30:12.029Z,101743.00
2018-09-17T02:32:15.113Z,101744.00
2018-09-17T02:34:18.167Z,101747.00
2018-09-17T02:36:21.318Z,101754.00
2018-09-17T02:38:24.351Z,101755.00
2018-09-17T02:40:27.454Z,101750.00
2018-09-17T02:42:30.534Z,101754.00
2018-09-17T02:44:33.580Z,101753.00
2018-09-17T02:46:38.025Z,101754.00
2018-09-17T02:48:41.031Z,101758.00
2018-09-17T02:50:44.084Z,101762.00
2018-09-17T02:52:47.123Z,101762.00
2018-09-17T02:54:50.230Z,101766.00
2018-09-17T02:56:53.210Z,101759.00
2018-09-17T02:58:56.183Z,101755.00
2018-09-17T03:00:59.306Z,101757.00
2018-09-17T03:03:02.323Z,101752.00
2018-09-17T03:05:05.453Z,101754.00
2018-09-17T03:07:10.182Z,101756.00
2018-09-17T03:09:13.497Z,101757.00
2018-09-17T03:11:16.510Z,101753.00
2018-09-17T03:13:19.480Z,101753.00
2018-09-17T03:15:39.944Z,101743.00
2018-09-17T03:17:42.910Z,101744.00
2018-09-17T03:19:46.300Z,101747.00
2018-09-17T03:21:49.774Z,101742.00
2018-09-17T03:23:53.023Z,101743.00
2018-09-17T03:25:56.135Z,101736.00
2018-09-17T03:27:59.097Z,101738.00
2018-09-17T03:30:02.227Z,101744.00
2018-09-17T03:32:05.278Z,101748.00
2018-09-17T03:34:09.925Z,101747.00
2018-09-17T03:36:12.948Z,101749.00
2018-09-17T03:38:34.345Z,101747.00
2018-09-17T03:40:39.224Z,101747.00
2018-09-17T03:42:42.319Z,101747.00
2018-09-17T03:44:45.393Z,101754.00
2018-09-17T03:46:48.430Z,101753.00
2018-09-17T03:48:51.464Z,101749.00
2018-09-17T03:50:54.618Z,101750.00
2018-09-17T03:52:57.667Z,101752.00
2018-09-17T03:55:01.585Z,101753.00
2018-09-17T03:57:04.665Z,101757.00
2018-09-17T03:59:09.110Z,101743.00
2018-09-17T04:01:12.110Z,101752.00
2018-09-17T04:03:15.343Z,101753.00
2018-09-17T04:05:18.315Z,101752.00
2018-09-17T04:07:21.327Z,101747.00
2018-09-17T04:09:24.374Z,101753.00
2018-09-17T04:11:27.761Z,101752.00
2018-09-17T04:13:30.728Z,101757.00
2018-09-17T04:15:33.724Z,101753.00
2018-09-17T04:17:38.388Z,101756.00
2018-09-17T04:19:41.523Z,101757.00
2018-09-17T04:21:44.556Z,101758.00
2018-09-17T04:23:48.046Z,101760.00
2018-09-17T04:25:51.112Z,101759.00
2018-09-17T04:27:54.417Z,101761.00
2018-09-17T04:29:57.473Z,101760.00
2018-09-17T04:32:00.523Z,101761.00
2018-09-17T04:34:03.856Z,101764.00
2018-09-17T04:36:09.135Z,101767.00
2018-09-17T04:38:12.204Z,101775.00
2018-09-17T04:40:15.458Z,101771.00
2018-09-17T04:42:18.516Z,101774.00
2018-09-17T04:44:21.558Z,101769.00
2018-09-17T04:46:24.603Z,101766.00
2018-09-17T04:48:27.943Z,101770.00
2018-09-17T04:50:31.362Z,101760.00
2018-09-17T04:52:34.410Z,101764.00
2018-09-17T04:54:39.096Z,101759.00
2018-09-17T04:56:42.528Z,101761.00
2018-09-17T04:58:45.582Z,101762.00
2018-09-17T05:00:48.987Z,101764.00
2018-09-17T05:02:52.253Z,101756.00
2018-09-17T05:04:55.483Z,101758.00
2018-09-17T05:06:58.539Z,101763.00
2018-09-17T05:09:01.735Z,101757.00
2018-09-17T05:11:05.234Z,101756.00
2018-09-17T05:13:09.891Z,101758.00
2018-09-17T05:15:12.922Z,101755.00
2018-09-17T05:17:16.054Z,101760.00
2018-09-17T05:19:19.181Z,101759.00
2018-09-17T05:21:22.391Z,101761.00
2018-09-17T05:23:25.473Z,101758.00
2018-09-17T05:25:28.585Z,101755.00
2018-09-17T05:27:31.743Z,101753.00
2018-09-17T05:29:34.738Z,101759.00
2018-09-17T05:31:39.658Z,101757.00
2018-09-17T05:33:42.711Z,101752.00
2018-09-17T05:35:45.832Z,101756.00
2018-09-17T05:37:48.878Z,101753.00
2018-09-17T05:39:51.882Z,101753.00
2018-09-17T05:41:54.918Z,101750.00
2018-09-17T05:43:58.130Z,101749.00
2018-09-17T05:46:01.105Z,101751.00
2018-09-17T05:48:04.115Z,101750.00
2018-09-17T05:50:08.898Z,101750.00
2018-09-17T05:52:11.939Z,101743.00
2018-09-17T05:54:14.942Z,101739.00
2018-09-17T05:56:18.441Z,101742.00
2018-09-17T05:58:21.387Z,101740.00
2018-09-17T06:00:24.424Z,101738.00
2018-09-17T06:02:27.430Z,101736.00
2018-09-17T06:04:30.412Z,101740.00
2018-09-17T06:06:33.452Z,101743.00
2018-09-17T06:08:38.148Z,101743.00
2018-09-17T06:10:41.178Z,101739.00
2018-09-17T06:12:45.954Z,101747.00
2018-09-17T06:14:49.162Z,101740.00
2018-09-17T06:16:52.177Z,101745.00
2018-09-17T06:18:55.198Z,101743.00
2018-09-17T06:20:58.202Z,101747.00
2018-09-17T06:23:01.167Z,101739.00
2018-09-17T06:25:04.375Z,101739.00
2018-09-17T06:27:08.739Z,101739.00
2018-09-17T06:29:11.896Z,101738.00
2018-09-17T06:31:16.772Z,101737.00
2018-09-17T06:33:19.948Z,101738.00
2018-09-17T06:35:22.936Z,101738.00
2018-09-17T06:37:26.002Z,101738.00
2018-09-17T06:39:28.952Z,101735.00
2018-09-17T06:41:32.037Z,101741.00
2018-09-17T06:43:35.010Z,101739.00
2018-09-17T06:45:39.714Z,101743.00
2018-09-17T06:47:42.799Z,101752.00
2018-09-17T06:49:46.072Z,101752.00
2018-09-17T06:51:49.414Z,101759.00
2018-09-17T06:53:52.441Z,101759.00
2018-09-17T06:55:55.606Z,101765.00
2018-09-17T06:57:58.701Z,101767.00
2018-09-17T07:00:02.831Z,101766.00
2018-09-17T07:02:06.407Z,101771.00
2018-09-17T07:04:10.664Z,101769.00
2018-09-17T07:06:13.754Z,101771.00
2018-09-17T07:08:16.884Z,101771.00
2018-09-17T07:10:19.968Z,101760.00
2018-09-17T07:12:23.114Z,101763.00
2018-09-17T07:14:26.256Z,101755.00
2018-09-17T07:16:29.275Z,101754.00
2018-09-17T07:18:32.355Z,101756.00
2018-09-17T07:20:35.376Z,101752.00
2018-09-17T07:22:38.997Z,101752.00
2018-09-17T07:24:42.287Z,101748.00
2018-09-17T07:26:45.669Z,101750.00
2018-09-17T07:28:48.787Z,101748.00
2018-09-17T07:30:51.847Z,101750.00
2018-09-17T07:32:55.243Z,101751.00
2018-09-17T07:34:58.243Z,101753.00
2018-09-17T07:37:02.394Z,101754.00
2018-09-17T07:39:10.044Z,101756.00
2018-09-17T07:41:13.036Z,101753.00
2018-09-17T07:43:16.014Z,101750.00
2018-09-17T07:45:19.110Z,101746.00
2018-09-17T07:47:22.126Z,101738.00
2018-09-17T07:49:25.186Z,101740.00
2018-09-17T07:51:28.202Z,101738.00
2018-09-17T07:53:31.202Z,101742.00
2018-09-17T07:55:34.213Z,101740.00
2018-09-17T07:57:38.785Z,101745.00
2018-09-17T07:59:41.807Z,101744.00
2018-09-17T08:01:45.422Z,101749.00
2018-09-17T08:03:48.459Z,101755.00
2018-09-17T08:05:51.467Z,101751.00
2018-09-17T08:07:54.829Z,101747.00
2018-09-17T08:09:57.958Z,101747.00
2018-09-17T08:12:01.007Z,101747.00
2018-09-17T08:14:04.056Z,101747.00
2018-09-17T08:16:08.706Z,101746.00
2018-09-17T08:18:11.853Z,101743.00
2018-09-17T08:20:14.964Z,101743.00
2018-09-17T08:22:18.100Z,101737.00
2018-09-17T08:24:21.104Z,101737.00
2018-09-17T08:26:24.060Z,101736.00
2018-09-17T08:28:27.219Z,101734.00
2018-09-17T08:30:30.278Z,101735.00
2018-09-17T08:32:33.639Z,101727.00
2018-09-17T08:34:38.696Z,101724.00
2018-09-17T08:36:41.826Z,101718.00
2018-09-17T08:38:44.843Z,101714.00
2018-09-17T08:40:47.894Z,101708.00
2018-09-17T08:42:50.868Z,101709.00
2018-09-17T08:44:53.987Z,101705.00
2018-09-17T08:46:57.007Z,101706.00
2018-09-17T08:49:00.214Z,101706.00
2018-09-17T08:51:03.313Z,101713.00
2018-09-17T08:53:08.237Z,101709.00
2018-09-17T08:55:15.839Z,101710.00
2018-09-17T08:57:24.592Z,101708.00
2018-09-17T08:59:33.536Z,101712.00
2018-09-17T09:01:42.223Z,101707.00
2018-09-17T09:03:50.912Z,101710.00
2018-09-17T09:05:59.691Z,101711.00
2018-09-17T09:08:02.797Z,101710.00
2018-09-17T09:10:11.690Z,101711.00
2018-09-17T09:12:24.927Z,101708.00
2018-09-17T09:14:38.263Z,101703.00
2018-09-17T09:16:41.408Z,101706.00
2018-09-17T09:18:44.751Z,101704.00
2018-09-17T09:20:47.897Z,101706.00
2018-09-17T09:22:51.257Z,101705.00
2018-09-17T09:24:54.285Z,101706.00
2018-09-17T09:26:57.335Z,101706.00
2018-09-17T09:29:00.452Z,101706.00
2018-09-17T09:31:03.767Z,101704.00
2018-09-17T09:33:08.586Z,101702.00
2018-09-17T09:35:11.941Z,101706.00
2018-09-17T09:37:14.992Z,101707.00
2018-09-17T09:39:18.097Z,101711.00
2018-09-17T09:41:21.231Z,101709.00
2018-09-17T09:43:24.296Z,101710.00
2018-09-17T09:45:27.301Z,101709.00
2018-09-17T09:47:30.356Z,101706.00
2018-09-17T09:49:33.402Z,101708.00
2018-09-17T09:51:37.841Z,101704.00
2018-09-17T09:53:40.877Z,101707.00
2018-09-17T09:55:43.941Z,101699.00
2018-09-17T09:57:46.987Z,101692.00
2018-09-17T09:59:50.179Z,101688.00
2018-09-17T10:01:58.286Z,101689.00
2018-09-17T10:04:09.067Z,101678.00
2018-09-17T10:06:13.831Z,101672.00
2018-09-17T10:08:17.265Z,101670.00
2018-09-17T10:10:26.042Z,101671.00
2018-09-17T10:12:34.702Z,101670.00
2018-09-17T10:14:45.192Z,101665.00
2018-09-17T10:16:53.835Z,101658.00
2018-09-17T10:19:02.654Z,101661.00
2018-09-17T10:21:05.586Z,101657.00
2018-09-17T10:23:09.935Z,101656.00
2018-09-17T10:25:13.251Z,101646.00
2018-09-17T10:27:17.165Z,101646.00
2018-09-17T10:29:20.250Z,101640.00
2018-09-17T10:31:23.262Z,101638.00
2018-09-17T10:33:26.472Z,101639.00
2018-09-17T10:35:29.538Z,101632.00
2018-09-17T10:37:32.542Z,101631.00
2018-09-17T10:39:36.296Z,101630.00
2018-09-17T10:41:39.706Z,101627.00
2018-09-17T10:43:42.811Z,101628.00
2018-09-17T10:45:46.070Z,101628.00
2018-09-17T10:47:49.268Z,101627.00
2018-09-17T10:49:52.286Z,101632.00
2018-09-17T10:51:55.439Z,101629.00
2018-09-17T10:53:58.622Z,101621.00
2018-09-17T10:56:01.829Z,101618.00
2018-09-17T10:58:05.038Z,101612.00
2018-09-17T11:00:10.319Z,101609.00
2018-09-17T11:02:13.515Z,101608.00
2018-09-17T11:04:16.592Z,101610.00
2018-09-17T11:06:19.655Z,101608.00
2018-09-17T11:08:23.747Z,101608.00
2018-09-17T11:10:26.947Z,101602.00
2018-09-17T11:12:30.105Z,101601.00
2018-09-17T11:14:33.289Z,101596.00
2018-09-17T11:16:36.287Z,101592.00
2018-09-17T11:18:39.609Z,101585.00
2018-09-17T11:20:42.856Z,101588.00
2018-09-17T11:22:45.908Z,101584.00
2018-09-17T11:24:49.038Z,101579.00
2018-09-17T11:26:52.238Z,101575.00
2018-09-17T11:28:55.306Z,101577.00
2018-09-17T11:30:58.447Z,101568.00
2018-09-17T11:33:01.678Z,101570.00
2018-09-17T11:35:05.226Z,101572.00
2018-09-17T11:37:10.275Z,101567.00
2018-09-17T11:39:13.370Z,101563.00
2018-09-17T11:41:16.606Z,101562.00
2018-09-17T11:43:20.730Z,101557.00
2018-09-17T11:45:23.763Z,101562.00
2018-09-17T11:47:27.009Z,101560.00
2018-09-17T11:49:30.159Z,101565.00
2018-09-17T11:51:33.349Z,101565.00
2018-09-17T11:53:40.735Z,101561.00
2018-09-17T11:55:43.771Z,101559.00
2018-09-17T11:57:46.936Z,101556.00
2018-09-17T11:59:50.126Z,101559.00
2018-09-17T12:01:58.881Z,101551.00
2018-09-17T12:04:07.824Z,101553.00
2018-09-17T12:06:10.934Z,101548.00
2018-09-17T12:08:16.379Z,101544.00
2018-09-17T12:10:19.404Z,101543.00
2018-09-17T12:12:22.523Z,101541.00
2018-09-17T12:14:25.795Z,101540.00
2018-09-17T12:16:28.885Z,101535.00
2018-09-17T12:18:32.024Z,101534.00
2018-09-17T12:20:35.598Z,101533.00
2018-09-17T12:22:40.705Z,101527.00
2018-09-17T12:24:43.923Z,101516.00
2018-09-17T12:26:46.975Z,101526.00
2018-09-17T12:28:50.053Z,101520.00
2018-09-17T12:30:53.076Z,101517.00
2018-09-17T12:32:56.275Z,101522.00
2018-09-17T12:34:59.447Z,101520.00
2018-09-17T12:37:02.482Z,101521.00
2018-09-17T12:39:08.214Z,101513.00
2018-09-17T12:41:11.241Z,101504.00
2018-09-17T12:43:14.997Z,101510.00
2018-09-17T12:45:18.034Z,101508.00
2018-09-17T12:47:21.080Z,101502.00
2018-09-17T12:49:24.441Z,101499.00
2018-09-17T12:51:27.603Z,101492.00
2018-09-17T12:53:30.779Z,101490.00
2018-09-17T12:55:34.090Z,101496.00
2018-09-17T12:57:38.991Z,101503.00
2018-09-17T12:59:41.976Z,101501.00
2018-09-17T13:01:45.043Z,101498.00
2018-09-17T13:03:48.262Z,101492.00
2018-09-17T13:05:51.291Z,101490.00
2018-09-17T13:07:54.609Z,101496.00
2018-09-17T13:09:57.630Z,101491.00
2018-09-17T13:12:00.668Z,101493.00
2018-09-17T13:14:03.943Z,101485.00
2018-09-17T13:16:09.262Z,101481.00
2018-09-17T13:18:12.369Z,101475.00
2018-09-17T13:20:15.482Z,101480.00
2018-09-17T13:22:18.746Z,101471.00
2018-09-17T13:24:21.771Z,101475.00
2018-09-17T13:26:24.805Z,101472.00
2018-09-17T13:28:27.900Z,101472.00
2018-09-17T13:30:30.910Z,101469.00
2018-09-17T13:32:34.068Z,101468.00
2018-09-17T13:34:38.815Z,101468.00
2018-09-17T13:36:41.861Z,101469.00
2018-09-17T13:38:45.027Z,101463.00
2018-09-17T13:40:48.192Z,101472.00
2018-09-17T13:42:59.037Z,101465.00
2018-09-17T13:45:02.179Z,101462.00
2018-09-17T13:47:05.307Z,101470.00
2018-09-17T13:49:09.907Z,101468.00
2018-09-17T13:51:12.965Z,101467.00
2018-09-17T13:53:16.097Z,101460.00
2018-09-17T13:55:19.263Z,101473.00
2018-09-17T13:57:22.287Z,101475.00
2018-09-17T13:59:25.618Z,101468.00
2018-09-17T14:01:28.721Z,101461.00
2018-09-17T14:03:31.863Z,101454.00
2018-09-17T14:05:34.902Z,101451.00
2018-09-17T14:07:39.367Z,101452.00
2018-09-17T14:09:42.542Z,101449.00
2018-09-17T14:11:46.016Z,101457.00
2018-09-17T14:13:49.301Z,101451.00
2018-09-17T14:15:58.013Z,101454.00
2018-09-17T14:18:01.332Z,101457.00
2018-09-17T14:20:04.412Z,101451.00
2018-09-17T14:22:07.974Z,101450.00
2018-09-17T14:24:11.545Z,101454.00
2018-09-17T14:26:14.886Z,101455.00
2018-09-17T14:28:18.191Z,101445.00
2018-09-17T14:30:21.410Z,101448.00
2018-09-17T14:32:30.430Z,101447.00
2018-09-17T14:34:33.609Z,101447.00
2018-09-17T14:36:36.677Z,101438.00
2018-09-17T14:38:39.725Z,101437.00
2018-09-17T14:40:42.795Z,101441.00
2018-09-17T14:42:45.868Z,101438.00
2018-09-17T14:44:49.076Z,101435.00
2018-09-17T14:46:52.401Z,101437.00
2018-09-17T14:48:56.025Z,101436.00
2018-09-17T14:50:59.111Z,101436.00
2018-09-17T14:53:02.148Z,101434.00
2018-09-17T14:55:05.594Z,101431.00
2018-09-17T14:57:10.570Z,101425.00
2018-09-17T14:59:13.598Z,101429.00
2018-09-17T15:01:16.668Z,101429.00
2018-09-17T15:03:19.724Z,101428.00
2018-09-17T15:05:22.885Z,101424.00
2018-09-17T15:07:26.028Z,101426.00
2018-09-17T15:09:29.216Z,101423.00
2018-09-17T15:11:32.393Z,101427.00
2018-09-17T15:13:35.642Z,101416.00
2018-09-17T15:15:50.511Z,101419.00
2018-09-17T15:17:53.735Z,101415.00
2018-09-17T15:19:56.973Z,101414.00
2018-09-17T15:22:00.116Z,101414.00
2018-09-17T15:24:03.246Z,101416.00
2018-09-17T15:26:06.455Z,101410.00
2018-09-17T15:28:10.819Z,101408.00
2018-09-17T15:30:13.982Z,101406.00
2018-09-17T15:32:18.207Z,101409.00
2018-09-17T15:34:21.554Z,101406.00
2018-09-17T15:36:24.884Z,101401.00
2018-09-17T15:38:29.167Z,101393.00
2018-09-17T15:40:32.286Z,101392.00
2018-09-17T15:42:35.277Z,101394.00
2018-09-17T15:44:40.381Z,101392.00
2018-09-17T15:46:43.683Z,101388.00
2018-09-17T15:48:46.887Z,101387.00
2018-09-17T15:50:49.915Z,101389.00
2018-09-17T15:52:53.057Z,101387.00
2018-09-17T15:54:56.249Z,101392.00
2018-09-17T15:56:59.407Z,101392.00
2018-09-17T15:59:02.538Z,101394.00
2018-09-17T16:01:06.648Z,101397.00
2018-09-17T16:03:09.895Z,101395.00
2018-09-17T16:05:12.950Z,101402.00
2018-09-17T16:07:16.000Z,101397.00
2018-09-17T16:09:19.063Z,101396.00
2018-09-17T16:11:22.203Z,101399.00
2018-09-17T16:13:25.529Z,101401.00
2018-09-17T16:15:28.712Z,101402.00
2018-09-17T16:17:32.135Z,101400.00
2018-09-17T16:19:35.239Z,101398.00
2018-09-17T16:21:39.402Z,101400.00
2018-09-17T16:23:42.462Z,101401.00
2018-09-17T16:25:45.845Z,101397.00
2018-09-17T16:27:49.099Z,101397.00
2018-09-17T16:29:52.243Z,101399.00
2018-09-17T16:31:55.295Z,101396.00
2018-09-17T16:33:58.374Z,101403.00
2018-09-17T16:36:01.572Z,101404.00
2018-09-17T16:38:04.801Z,101405.00
2018-09-17T16:40:09.710Z,101403.00
2018-09-17T16:42:12.756Z,101413.00
2018-09-17T16:44:15.845Z,101413.00
2018-09-17T16:46:18.949Z,101413.00
2018-09-17T16:48:22.066Z,101416.00
2018-09-17T16:50:25.086Z,101419.00
2018-09-17T16:52:28.113Z,101417.00
2018-09-17T16:54:31.124Z,101420.00
2018-09-17T16:56:34.187Z,101416.00
2018-09-17T16:58:38.385Z,101420.00
2018-09-17T17:00:41.411Z,101422.00
2018-09-17T17:02:44.446Z,101419.00
2018-09-17T17:04:47.573Z,101423.00
2018-09-17T17:06:50.675Z,101421.00
2018-09-17T17:08:53.860Z,101421.00
2018-09-17T17:10:57.180Z,101428.00
2018-09-17T17:13:00.249Z,101428.00
2018-09-17T17:15:03.483Z,101441.00
2018-09-17T17:17:06.511Z,101444.00
2018-09-17T17:19:11.239Z,101445.00
2018-09-17T17:21:14.273Z,101445.00
2018-09-17T17:23:17.246Z,101445.00
2018-09-17T17:25:20.266Z,101446.00
2018-09-17T17:27:23.347Z,101445.00
2018-09-17T17:29:32.124Z,101446.00
2018-09-17T17:31:35.259Z,101451.00
2018-09-17T17:33:39.814Z,101451.00
2018-09-17T17:35:43.441Z,101452.00
2018-09-17T17:37:46.582Z,101453.00
2018-09-17T17:39:49.846Z,101454.00
2018-09-17T17:41:52.982Z,101457.00
2018-09-17T17:43:56.097Z,101458.00
2018-09-17T17:45:59.132Z,101459.00
2018-09-17T17:48:02.704Z,101460.00
2018-09-17T17:50:05.833Z,101457.00
2018-09-17T17:52:10.123Z,101465.00
2018-09-17T17:54:13.521Z,101466.00
2018-09-17T17:56:16.690Z,101466.00
2018-09-17T17:58:19.790Z,101476.00
2018-09-17T18:00:22.849Z,101473.00
2018-09-17T18:02:25.923Z,101473.00
2018-09-17T18:04:28.929Z,101478.00
2018-09-17T18:06:32.037Z,101479.00
2018-09-17T18:08:35.220Z,101478.00
2018-09-17T18:10:39.757Z,101486.00
2018-09-17T18:12:43.001Z,101483.00
2018-09-17T18:14:46.277Z,101482.00
2018-09-17T18:16:49.298Z,101483.00
2018-09-17T18:18:52.542Z,101487.00
2018-09-17T18:20:55.698Z,101485.00
2018-09-17T18:22:58.656Z,101484.00
2018-09-17T18:25:01.757Z,101489.00
2018-09-17T18:29:17.811Z,101495.00
2018-09-17T18:31:20.907Z,101496.00
2018-09-17T18:33:23.910Z,101500.00
2018-09-17T18:35:27.238Z,101493.00
2018-09-17T18:37:30.236Z,101498.00
2018-09-17T18:39:33.496Z,101499.00
2018-09-17T18:41:36.464Z,101498.00
2018-09-17T18:43:41.585Z,101498.00
2018-09-17T18:45:44.643Z,101501.00
2018-09-17T18:47:47.817Z,101500.00
2018-09-17T18:49:50.922Z,101500.00
2018-09-17T18:51:53.974Z,101505.00
2018-09-17T18:53:57.122Z,101505.00
2018-09-17T18:56:00.465Z,101500.00
2018-09-17T18:58:03.638Z,101503.00
2018-09-17T19:00:09.532Z,101502.00
2018-09-17T19:02:13.076Z,101504.00
2018-09-17T19:04:16.183Z,101505.00
2018-09-17T19:06:19.298Z,101503.00
2018-09-17T19:08:22.428Z,101503.00
2018-09-17T19:10:25.470Z,101505.00
2018-09-17T19:12:28.688Z,101503.00
2018-09-17T19:14:38.865Z,101501.00
2018-09-17T19:16:47.891Z,101497.00
2018-09-17T19:18:50.888Z,101500.00
2018-09-17T19:20:54.290Z,101506.00
2018-09-17T19:23:03.024Z,101504.00
2018-09-17T19:25:06.205Z,101503.00
2018-09-17T19:27:10.516Z,101503.00
2018-09-17T19:29:15.863Z,101502.00
2018-09-17T19:31:19.304Z,101501.00
2018-09-17T19:33:22.371Z,101501.00
2018-09-17T19:35:25.588Z,101501.00
2018-09-17T19:37:34.644Z,101501.00
2018-09-17T19:39:43.605Z,101501.00
2018-09-17T19:41:46.834Z,101500.00
2018-09-17T19:43:50.059Z,101496.00
2018-09-17T19:45:58.855Z,101499.00
2018-09-17T19:48:02.090Z,101495.00
2018-09-17T19:50:09.862Z,101493.00
2018-09-17T19:52:17.312Z,101494.00
2018-09-17T19:54:20.304Z,101497.00
2018-09-17T19:56:23.353Z,101496.00
2018-09-17T19:58:32.123Z,101492.00
2018-09-17T20:00:35.206Z,101491.00
2018-09-17T20:02:39.728Z,101493.00
2018-09-17T20:04:48.801Z,101495.00
2018-09-17T20:06:51.926Z,101488.00
2018-09-17T20:08:55.257Z,101492.00
2018-09-17T20:11:00.415Z,101494.00
2018-09-17T20:13:09.035Z,101493.00
2018-09-17T20:15:12.578Z,101490.00
2018-09-17T20:17:15.800Z,101497.00
2018-09-17T20:19:18.779Z,101502.00
2018-09-17T20:21:21.935Z,101501.00
2018-09-17T20:23:24.998Z,101499.00
2018-09-17T20:25:28.146Z,101496.00
2018-09-17T20:27:31.332Z,101498.00
2018-09-17T20:29:34.385Z,101498.00
2018-09-17T20:31:38.113Z,101494.00
2018-09-17T20:33:41.282Z,101498.00
2018-09-17T20:35:44.388Z,101500.00
2018-09-17T20:37:47.911Z,101499.00
2018-09-17T20:39:50.920Z,101497.00
2018-09-17T20:41:54.015Z,101499.00
2018-09-17T20:43:57.197Z,101503.00
2018-09-17T20:46:00.253Z,101502.00
2018-09-17T20:48:03.382Z,101503.00
2018-09-17T20:50:06.501Z,101505.00
2018-09-17T20:52:11.044Z,101511.00
2018-09-17T20:54:14.536Z,101511.00
2018-09-17T20:56:17.615Z,101512.00
2018-09-17T20:58:20.738Z,101505.00
2018-09-17T21:00:23.897Z,101507.00
2018-09-17T21:02:26.925Z,101502.00
2018-09-17T21:04:30.003Z,101501.00
2018-09-17T21:06:33.205Z,101501.00
2018-09-17T21:26:22.520Z,101498.00
2018-09-17T22:14:12.961Z,101471.00
2018-09-17T22:16:15.998Z,101470.00
2018-09-17T22:18:19.087Z,101477.00
2018-09-17T22:20:22.139Z,101470.00
2018-09-17T22:22:25.177Z,101471.00
2018-09-17T22:24:28.270Z,101474.00
2018-09-17T22:26:31.334Z,101473.00
2018-09-17T22:28:34.545Z,101469.00
2018-09-17T22:30:38.177Z,101473.00
2018-09-17T22:32:41.212Z,101471.00
2018-09-17T22:34:44.298Z,101477.00
2018-09-17T22:36:47.411Z,101477.00
2018-09-17T22:38:50.481Z,101475.00
2018-09-17T22:40:53.805Z,101474.00
2018-09-17T22:42:56.931Z,101476.00
2018-09-17T22:45:00.206Z,101475.00
2018-09-17T22:47:03.306Z,101478.00
2018-09-17T22:49:06.905Z,101475.00
2018-09-17T22:51:10.904Z,101475.00
2018-09-17T22:53:14.327Z,101474.00
2018-09-17T22:55:17.374Z,101473.00
2018-09-17T22:57:20.478Z,101469.00
2018-09-17T22:59:23.514Z,101463.00
2018-09-17T23:01:26.852Z,101463.00
2018-09-17T23:03:29.833Z,101464.00
2018-09-17T23:05:33.066Z,101467.00
2018-09-17T23:07:36.190Z,101466.00
2018-09-17T23:09:40.770Z,101461.00
2018-09-17T23:11:43.778Z,101461.00
2018-09-17T23:13:47.143Z,101464.00
2018-09-17T23:15:50.159Z,101458.00
2018-09-17T23:17:53.160Z,101458.00
2018-09-17T23:19:56.179Z,101457.00
2018-09-17T23:21:59.206Z,101459.00
2018-09-17T23:24:02.216Z,101456.00
2018-09-17T23:26:05.280Z,101457.00
2018-09-17T23:28:10.202Z,101461.00
2018-09-17T23:30:13.258Z,101458.00
2018-09-17T23:32:16.306Z,101458.00
2018-09-17T23:34:19.329Z,101457.00
2018-09-17T23:36:22.364Z,101452.00
2018-09-17T23:38:25.399Z,101450.00
2018-09-17T23:40:28.393Z,101450.00
2018-09-17T23:42:31.410Z,101454.00
2018-09-17T23:44:34.544Z,101456.00
2018-09-17T23:46:39.297Z,101452.00
2018-09-17T23:48:42.326Z,101454.00
2018-09-17T23:50:45.446Z,101452.00
2018-09-17T23:52:48.608Z,101450.00
2018-09-17T23:54:51.650Z,101450.00
2018-09-17T23:56:54.630Z,101445.00
2018-09-17T23:58:57.662Z,101447.00
